Time;durP1;ratioP1;P1;durP2;ratioP2;P2;SDS_P1;SDS_P2;PMS_P1;PMS_P2;Temp;Humidity;BMP_temperature;BMP_pressure;BME280_temperature;BME280_humidity;BME280_pressure;Samples;Min_cycle;Max_cycle;Signal;HPM_P1;HPM_P2
2023/04/20 00:01:40;;;;;;;;;;;;;;;21.08;36.65;102354.47;5131567;27;19955;-71
2023/04/20 00:04:06;;;;;;;;;;;;;;;21.05;36.66;102349.34;5129510;27;19993;-71
2023/04/20 00:06:33;;;;;;;;;;;;;;;21.03;36.70;102341.38;5132796;27;19912;-70
2023/04/20 00:08:58;;;;;;;;;;;;;;;21.03;36.75;102332.41;5130526;27;19919;-71
2023/04/20 00:11:23;;;;;;;;;;;;;;;21.01;36.76;102331.69;5135803;27;19963;-71
2023/04/20 00:13:48;;;;;;;;;;;;;;;20.99;36.40;102329.16;5130356;27;19928;-71
2023/04/20 00:16:14;;;;;;;;;;;;;;;20.97;36.64;102333.84;5136062;27;19916;-71
2023/04/20 00:18:39;;;;;;;;;;;;;;;20.95;36.75;102323.19;5134296;27;19998;-71
2023/04/20 00:21:04;;;;;;;;;;;;;;;20.94;36.48;102323.31;5132973;27;19915;-71
2023/04/20 00:23:29;;;;;;;;;;;;;;;20.93;36.66;102319.75;5133129;27;19915;-71
2023/04/20 00:25:55;;;;;;;;;;;;;;;20.91;36.78;102308.25;5131376;27;19954;-71
2023/04/20 00:28:20;;;;;;;;;;;;;;;20.91;36.44;102310.13;5129334;27;19965;-71
2023/04/20 00:30:45;;;;;;;;;;;;;;;20.89;36.62;102307.53;5131051;27;19912;-72
2023/04/20 00:33:10;;;;;;;;;;;;;;;20.88;36.52;102310.41;5132908;27;19915;-71
2023/04/20 00:35:35;;;;;;;;;;;;;;;20.86;36.67;102301.59;5130207;27;19916;-71
2023/04/20 00:38:01;;;;;;;;;;;;;;;20.86;36.81;102301.59;5134058;27;19926;-71
2023/04/20 00:40:26;;;;;;;;;;;;;;;20.84;36.55;102299.03;5111660;28;19911;-71
2023/04/20 00:42:51;;;;;;;;;;;;;;;20.82;36.69;102295.63;5136683;27;19926;-71
2023/04/20 00:45:16;;;;;;;;;;;;;;;20.82;36.71;102287.53;5135516;27;20003;-71
2023/04/20 00:47:41;;;;;;;;;;;;;;;20.80;36.65;102278.69;5134011;27;19920;-70
2023/04/20 00:50:07;;;;;;;;;;;;;;;20.79;36.57;102277.00;5134679;27;20388;-71
2023/04/20 00:52:32;;;;;;;;;;;;;;;20.78;36.61;102272.59;5130152;27;19919;-71
2023/04/20 00:54:57;;;;;;;;;;;;;;;20.78;36.77;102271.75;5115292;28;19912;-71
2023/04/20 00:57:23;;;;;;;;;;;;;;;20.76;36.72;102263.78;5113956;28;19923;-71
2023/04/20 00:59:49;;;;;;;;;;;;;;;20.75;36.66;102264.78;5132145;27;19919;-70
2023/04/20 01:02:14;;;;;;;;;;;;;;;20.74;36.73;102267.63;5131235;27;19933;-71
2023/04/20 01:04:40;;;;;;;;;;;;;;;20.74;36.69;102259.53;5132706;27;19912;-70
2023/04/20 01:07:05;;;;;;;;;;;;;;;20.72;36.73;102255.09;5132560;27;19930;-70
2023/04/20 01:09:30;;;;;;;;;;;;;;;20.71;36.83;102249.84;5131422;27;20404;-71
2023/04/20 01:11:55;;;;;;;;;;;;;;;20.70;36.73;102243.59;5135135;27;19915;-71
2023/04/20 01:14:20;;;;;;;;;;;;;;;20.69;37.06;102243.75;5129611;27;19931;-71
2023/04/20 01:16:46;;;;;;;;;;;;;;;20.68;37.06;102239.31;5139006;27;19915;-71
2023/04/20 01:19:11;;;;;;;;;;;;;;;20.66;36.76;102239.50;5113707;28;19919;-71
2023/04/20 01:21:37;;;;;;;;;;;;;;;20.65;36.82;102221.59;5130034;27;19922;-71
2023/04/20 01:24:02;;;;;;;;;;;;;;;20.64;36.80;102227.97;5132740;27;19918;-71
2023/04/20 01:26:27;;;;;;;;;;;;;;;20.63;36.74;102218.16;5129394;27;19951;-71
2023/04/20 01:28:52;;;;;;;;;;;;;;;20.62;36.83;102210.22;5127712;28;19942;-72
2023/04/20 01:31:18;;;;;;;;;;;;;;;20.61;36.79;102217.47;5130909;28;19912;-71
2023/04/20 01:33:43;;;;;;;;;;;;;;;20.59;37.03;102203.25;5133294;27;19937;-71
2023/04/20 01:36:08;;;;;;;;;;;;;;;20.58;37.08;102196.13;5129676;28;19919;-71
2023/04/20 01:38:33;;;;;;;;;;;;;;;20.58;36.81;102198.84;5136759;28;19926;-71
2023/04/20 01:40:59;;;;;;;;;;;;;;;20.57;37.12;102193.59;5131744;28;20382;-71
2023/04/20 01:43:25;;;;;;;;;;;;;;;20.55;36.70;102193.72;5135459;28;19970;-70
2023/04/20 01:45:50;;;;;;;;;;;;;;;20.54;37.02;102178.53;5135257;27;19923;-70
2023/04/20 01:48:15;;;;;;;;;;;;;;;20.53;37.10;102181.38;5130154;28;19919;-71
2023/04/20 01:50:40;;;;;;;;;;;;;;;20.53;36.98;102181.38;5135393;27;19916;-71
2023/04/20 01:53:05;;;;;;;;;;;;;;;20.51;37.04;102169.84;5129945;28;19979;-71
2023/04/20 01:55:31;;;;;;;;;;;;;;;20.50;36.83;102165.47;5129193;28;19973;-71
2023/04/20 01:57:58;;;;;;;;;;;;;;;20.50;36.98;102157.34;5129752;28;19927;-71
2023/04/20 02:00:23;;;;;;;;;;;;;;;20.48;36.93;102154.81;5115098;28;19949;-71
2023/04/20 02:02:48;;;;;;;;;;;;;;;20.46;36.86;102149.50;5128255;28;19912;-71
2023/04/20 02:05:13;;;;;;;;;;;;;;;20.46;36.91;102143.25;5134924;27;19933;-71
2023/04/20 02:07:38;;;;;;;;;;;;;;;20.43;36.92;102139.03;5133467;27;19911;-71
2023/04/20 02:10:04;;;;;;;;;;;;;;;20.44;36.86;102147.97;5130537;28;20007;-71
2023/04/20 02:12:29;;;;;;;;;;;;;;;20.43;36.88;102138.16;5134951;28;19920;-71
2023/04/20 02:14:54;;;;;;;;;;;;;;;20.41;37.19;102146.41;5129927;28;19912;-71
2023/04/20 02:17:19;;;;;;;;;;;;;;;20.41;37.01;102140.16;5135158;28;19920;-71
2023/04/20 02:19:45;;;;;;;;;;;;;;;20.40;37.21;102133.06;5129931;28;20372;-71
2023/04/20 02:22:11;;;;;;;;;;;;;;;20.38;37.08;102127.78;5130402;28;20383;-71
2023/04/20 02:24:36;;;;;;;;;;;;;;;20.38;37.16;102127.78;5129663;28;19982;-71
2023/04/20 02:27:01;;;;;;;;;;;;;;;20.37;37.00;102125.25;5130467;28;19926;-71
2023/04/20 02:29:26;;;;;;;;;;;;;;;20.36;37.23;102127.09;5129078;28;19966;-70
2023/04/20 02:31:51;;;;;;;;;;;;;;;20.35;37.31;102125.41;5133613;28;19919;-71
2023/04/20 02:34:16;;;;;;;;;;;;;;;20.34;37.27;102115.56;5133629;28;19918;-71
2023/04/20 02:36:42;;;;;;;;;;;;;;;20.33;37.06;102111.19;5128912;28;19919;-71
2023/04/20 02:39:07;;;;;;;;;;;;;;;20.33;36.91;102104.94;5139370;28;20439;-71
2023/04/20 02:41:32;;;;;;;;;;;;;;;20.32;37.28;102112.19;5130181;28;19912;-70
2023/04/20 02:43:57;;;;;;;;;;;;;;;20.31;37.01;102101.53;5129437;27;19919;-71
2023/04/20 02:46:22;;;;;;;;;;;;;;;20.30;36.99;102099.81;5136868;27;20642;-71
2023/04/20 02:48:48;;;;;;;;;;;;;;;20.30;37.21;102102.53;5134485;27;19915;-71
2023/04/20 02:51:13;;;;;;;;;;;;;;;20.28;37.00;102097.28;5138482;27;19933;-71
2023/04/20 02:53:38;;;;;;;;;;;;;;;20.28;37.20;102102.69;5133031;27;19967;-71
2023/04/20 02:56:03;;;;;;;;;;;;;;;20.27;37.04;102092.03;5133450;27;19919;-71
2023/04/20 02:58:28;;;;;;;;;;;;;;;20.25;37.13;102097.56;5135635;27;19916;-70
2023/04/20 03:01:00;;;;;;;;;;;;;;;20.25;37.15;102102.13;5137322;27;19912;-70
2023/04/20 03:03:26;;;;;;;;;;;;;;;20.24;37.14;102095.88;5131193;27;19912;-70
2023/04/20 03:05:51;;;;;;;;;;;;;;;20.22;37.04;102090.63;5140678;27;19915;-70
2023/04/20 03:08:16;;;;;;;;;;;;;;;20.21;37.16;102088.91;5135914;27;20458;-71
2023/04/20 03:10:41;;;;;;;;;;;;;;;20.21;37.04;102083.50;5132111;27;19922;-71
2023/04/20 03:13:06;;;;;;;;;;;;;;;20.21;37.36;102085.34;5138359;27;19923;-71
2023/04/20 03:15:31;;;;;;;;;;;;;;;20.20;37.11;102076.41;5133014;27;19915;-71
2023/04/20 03:17:57;;;;;;;;;;;;;;;20.18;37.04;102078.44;5134090;27;20292;-71
2023/04/20 03:20:22;;;;;;;;;;;;;;;20.18;37.05;102078.44;5131647;27;19937;-71
2023/04/20 03:22:47;;;;;;;;;;;;;;;20.17;37.13;102075.84;5134338;27;19946;-71
2023/04/20 03:25:12;;;;;;;;;;;;;;;20.16;37.10;102077.72;5128580;27;19919;-71
2023/04/20 03:27:37;;;;;;;;;;;;;;;20.16;37.19;102066.06;5135181;27;19918;-71
2023/04/20 03:30:03;;;;;;;;;;;;;;;20.15;37.33;102070.63;5132274;27;19954;-71
2023/04/20 03:32:28;;;;;;;;;;;;;;;20.14;37.14;102063.53;5121276;27;19918;-71
2023/04/20 03:34:53;;;;;;;;;;;;;;;20.13;37.33;102061.78;5137991;27;19918;-71
2023/04/20 03:37:18;;;;;;;;;;;;;;;20.12;37.14;102060.09;5132674;27;19956;-71
2023/04/20 03:39:43;;;;;;;;;;;;;;;20.11;37.15;102063.81;5134970;27;19912;-71
2023/04/20 03:42:09;;;;;;;;;;;;;;;20.11;37.13;102054.88;5135311;27;19941;-71
2023/04/20 03:44:34;;;;;;;;;;;;;;;20.10;37.33;102056.72;5137839;27;20402;-71
2023/04/20 03:46:59;;;;;;;;;;;;;;;20.10;37.32;102058.56;5133475;27;19919;-71
2023/04/20 03:49:24;;;;;;;;;;;;;;;20.09;37.22;102048.75;5132975;27;19920;-71
2023/04/20 03:51:50;;;;;;;;;;;;;;;20.09;37.30;102046.03;5131335;27;19992;-71
2023/04/20 03:54:15;;;;;;;;;;;;;;;20.07;37.25;102042.66;5131189;27;19918;-71
2023/04/20 03:56:40;;;;;;;;;;;;;;;20.06;37.23;102046.38;5132883;27;19912;-71
2023/04/20 03:59:05;;;;;;;;;;;;;;;20.05;37.49;102045.53;5131209;27;20478;-71
2023/04/20 04:01:31;;;;;;;;;;;;;;;20.05;37.19;102040.13;5139095;27;19920;-70
2023/04/20 04:03:56;;;;;;;;;;;;;;;20.04;37.23;102049.19;5131061;27;19933;-71
2023/04/20 04:06:21;;;;;;;;;;;;;;;20.04;37.39;102035.69;5138567;27;19958;-71
2023/04/20 04:08:46;;;;;;;;;;;;;;;20.03;37.44;102034.00;5133271;27;19979;-71
2023/04/20 04:11:12;;;;;;;;;;;;;;;20.03;37.13;102033.16;5130223;27;19919;-71
2023/04/20 04:13:37;;;;;;;;;;;;;;;20.01;37.31;102029.75;5118800;28;19970;-71
2023/04/20 04:16:02;;;;;;;;;;;;;;;20.00;37.49;102037.00;5131342;27;20407;-71
2023/04/20 04:18:31;;;;;;;;;;;;;;;20.00;37.50;102025.34;5129956;27;19916;-70
2023/04/20 04:20:56;;;;;;;;;;;;;;;19.98;37.28;102012.84;5130241;27;19971;-69
2023/04/20 04:23:21;;;;;;;;;;;;;;;19.98;37.54;102012.00;5134575;27;19918;-71
2023/04/20 04:25:47;;;;;;;;;;;;;;;19.97;37.19;102019.25;5130696;27;19918;-71
2023/04/20 04:28:13;;;;;;;;;;;;;;;19.97;37.59;102023.81;5135691;27;19943;-71
2023/04/20 04:30:39;;;;;;;;;;;;;;;19.96;37.50;102016.69;5132524;27;19912;-70
2023/04/20 04:33:04;;;;;;;;;;;;;;;19.95;37.28;102007.75;5128416;27;19922;-71
2023/04/20 04:35:30;;;;;;;;;;;;;;;19.94;37.54;102011.44;5132802;27;19918;-69
2023/04/20 04:37:55;;;;;;;;;;;;;;;19.94;37.62;101999.81;5132277;27;19919;-70
2023/04/20 04:40:20;;;;;;;;;;;;;;;19.94;37.73;102013.31;5121934;27;20124;-73
2023/04/20 04:42:46;;;;;;;;;;;;;;;19.94;38.11;102019.53;5133147;27;20383;-73
2023/04/20 04:45:12;;;;;;;;;;;;;;;19.94;38.05;102006.06;5132422;27;19923;-72
2023/04/20 04:47:40;;;;;;;;;;;;;;;19.94;38.21;102005.22;5130394;27;19942;-71
2023/04/20 04:50:06;;;;;;;;;;;;;;;19.94;38.02;102006.06;5130907;27;19911;-71
2023/04/20 04:52:31;;;;;;;;;;;;;;;19.94;38.35;102016.00;5113064;27;19911;-71
2023/04/20 04:54:57;;;;;;;;;;;;;;;19.94;38.23;102013.31;5133298;27;19912;-72
2023/04/20 04:57:22;;;;;;;;;;;;;;;19.94;38.67;101997.09;5132128;27;19920;-71
2023/04/20 04:59:47;;;;;;;;;;;;;;;19.93;38.55;102001.66;5134173;27;19973;-70
2023/04/20 05:02:12;;;;;;;;;;;;;;;19.94;38.60;101999.81;5133505;27;19912;-70
2023/04/20 05:04:37;;;;;;;;;;;;;;;19.93;38.61;101998.97;5132356;27;19936;-72
2023/04/20 05:07:02;;;;;;;;;;;;;;;19.93;38.66;101998.97;5130213;27;19919;-71
2023/04/20 05:09:32;;;;;;;;;;;;;;;19.94;38.67;101995.25;5130367;27;19916;-73
2023/04/20 05:11:57;;;;;;;;;;;;;;;19.93;38.83;101998.97;5129669;27;19951;-74
2023/04/20 05:14:22;;;;;;;;;;;;;;;19.93;38.95;101992.72;5132651;27;19924;-74
2023/04/20 05:16:48;;;;;;;;;;;;;;;19.93;38.43;101995.41;5113945;27;19915;-73
2023/04/20 05:19:13;;;;;;;;;;;;;;;19.92;38.68;101997.25;5110010;28;19923;-70
2023/04/20 05:21:38;;;;;;;;;;;;;;;19.93;38.91;102000.81;5131691;27;20704;-70
2023/04/20 05:24:04;;;;;;;;;;;;;;;19.92;38.87;101999.09;5131705;28;19915;-74
2023/04/20 05:26:29;;;;;;;;;;;;;;;19.92;38.84;101996.38;5134241;27;20429;-73
2023/04/20 05:28:54;;;;;;;;;;;;;;;19.92;38.89;101993.69;5132710;28;19923;-73
2023/04/20 05:31:19;;;;;;;;;;;;;;;19.91;38.64;101992.84;5132744;28;19911;-72
2023/04/20 05:33:44;;;;;;;;;;;;;;;19.91;39.14;102006.34;5136405;28;19937;-73
2023/04/20 05:36:10;;;;;;;;;;;;;;;19.92;38.83;102007.19;5111238;28;19920;-73
2023/04/20 05:38:35;;;;;;;;;;;;;;;19.90;39.10;101993.84;5116644;28;19915;-73
2023/04/20 05:41:00;;;;;;;;;;;;;;;19.90;39.06;101999.25;5128434;28;19999;-74
2023/04/20 05:43:25;;;;;;;;;;;;;;;19.91;38.71;102000.09;5128606;28;19923;-74
2023/04/20 05:45:51;;;;;;;;;;;;;;;19.90;38.70;101985.75;5129734;27;19916;-73
2023/04/20 05:48:16;;;;;;;;;;;;;;;19.90;38.74;101984.91;5131483;28;19919;-73
2023/04/20 05:50:41;;;;;;;;;;;;;;;19.90;38.68;101990.31;5131697;27;19923;-74
2023/04/20 05:53:07;;;;;;;;;;;;;;;19.90;38.76;101990.31;5130829;28;19918;-70
2023/04/20 05:55:32;;;;;;;;;;;;;;;19.89;38.84;101994.84;5117707;28;19911;-70
2023/04/20 05:57:57;;;;;;;;;;;;;;;19.89;38.71;102008.34;5134342;28;19930;-75
2023/04/20 06:00:23;;;;;;;;;;;;;;;19.88;38.92;102009.34;5112889;28;20006;-74
2023/04/20 06:02:48;;;;;;;;;;;;;;;19.89;38.88;101994.00;5130396;28;19949;-73
2023/04/20 06:05:13;;;;;;;;;;;;;;;19.88;38.72;102003.09;5130892;28;20003;-72
2023/04/20 06:07:39;;;;;;;;;;;;;;;19.88;38.83;102008.47;5130356;28;19941;-73
2023/04/20 06:10:04;;;;;;;;;;;;;;;19.86;38.96;102003.25;5128251;28;19951;-73
2023/04/20 06:12:30;;;;;;;;;;;;;;;19.87;38.82;102006.78;5128895;28;19993;-73
2023/04/20 06:14:55;;;;;;;;;;;;;;;19.86;38.82;102002.41;5129539;28;19926;-72
2023/04/20 06:17:20;;;;;;;;;;;;;;;19.86;38.71;102003.25;5131156;28;20011;-71
2023/04/20 06:19:46;;;;;;;;;;;;;;;19.85;38.54;101998.84;5131298;27;19962;-72
2023/04/20 06:22:11;;;;;;;;;;;;;;;19.84;38.65;102004.41;5136913;27;19920;-71
2023/04/20 06:24:37;;;;;;;;;;;;;;;19.84;38.74;102012.50;5137998;27;19957;-71
2023/04/20 06:27:02;;;;;;;;;;;;;;;19.83;38.54;101998.13;5136111;27;19964;-72
2023/04/20 06:29:28;;;;;;;;;;;;;;;19.83;38.37;101999.97;5113674;27;19918;-72
2023/04/20 06:31:53;;;;;;;;;;;;;;;19.82;38.40;101999.13;5133099;27;19920;-73
2023/04/20 06:34:18;;;;;;;;;;;;;;;19.82;38.49;101998.28;5140379;27;19916;-73
2023/04/20 06:36:43;;;;;;;;;;;;;;;19.82;38.47;101992.91;5133649;27;20485;-71
2023/04/20 06:39:10;;;;;;;;;;;;;;;19.80;38.45;102005.69;5134612;27;19929;-71
2023/04/20 06:41:35;;;;;;;;;;;;;;;19.80;38.54;101998.44;5132465;27;19958;-71
2023/04/20 06:44:01;;;;;;;;;;;;;;;19.80;38.34;102000.31;5117439;27;20383;-70
2023/04/20 06:46:26;;;;;;;;;;;;;;;19.79;38.55;102001.28;5132503;27;20378;-73
2023/04/20 06:48:51;;;;;;;;;;;;;;;19.79;38.50;102004.81;5131166;27;20363;-71
2023/04/20 06:51:16;;;;;;;;;;;;;;;19.77;38.39;101990.66;5136208;27;19923;-71
2023/04/20 06:53:41;;;;;;;;;;;;;;;19.78;38.37;102004.97;5133508;27;19937;-70
2023/04/20 06:56:07;;;;;;;;;;;;;;;19.77;38.43;102006.84;5132208;27;19926;-73
2023/04/20 06:58:32;;;;;;;;;;;;;;;19.76;38.44;101993.50;5127497;27;19939;-74
2023/04/20 07:00:57;;;;;;;;;;;;;;;19.75;38.22;102002.56;5135811;27;19916;-75
2023/04/20 07:03:23;;;;;;;;;;;;;;;19.75;38.03;101999.88;5134353;27;19991;-76
2023/04/20 07:05:48;;;;;;;;;;;;;;;19.73;38.09;102000.03;5131541;27;19915;-75
2023/04/20 07:08:14;;;;;;;;;;;;;;;19.72;38.10;102003.72;5134368;27;19921;-75
2023/04/20 07:10:39;;;;;;;;;;;;;;;19.69;37.95;102004.03;5132862;27;20493;-75
2023/04/20 07:13:05;;;;;;;;;;;;;;;19.70;37.96;102005.72;5133234;27;19927;-74
2023/04/20 07:15:30;;;;;;;;;;;;;;;19.69;37.94;102006.72;5133258;27;19922;-71
2023/04/20 07:17:55;;;;;;;;;;;;;;;19.68;38.02;102008.56;5132022;27;20459;-71
2023/04/20 07:20:20;;;;;;;;;;;;;;;19.67;38.11;101995.25;5116210;27;19912;-71
2023/04/20 07:22:46;;;;;;;;;;;;;;;19.19;38.12;101918.81;5137101;27;19916;-68
2023/04/20 07:25:11;;;;;;;;;;;;;;;19.67;38.04;101998.78;5134756;27;19957;-68
2023/04/20 07:27:37;;;;;;;;;;;;;;;19.67;38.20;102009.56;5135745;27;19919;-69
2023/04/20 07:30:05;;;;;;;;;;;;;;;19.67;38.33;101996.09;5129732;27;19998;-69
2023/04/20 07:32:30;;;;;;;;;;;;;;;19.68;38.40;101994.22;5131504;27;19955;-69
2023/04/20 07:34:55;;;;;;;;;;;;;;;19.70;38.13;101989.53;5111864;27;19964;-72
2023/04/20 07:37:20;;;;;;;;;;;;;;;19.70;38.40;101990.38;5133586;27;19916;-72
2023/04/20 07:39:46;;;;;;;;;;;;;;;19.71;38.13;101984.00;5129191;27;19941;-71
2023/04/20 07:42:11;;;;;;;;;;;;;;;19.72;38.41;101988.38;5136267;27;19983;-72
2023/04/20 07:44:36;;;;;;;;;;;;;;;19.72;38.35;101980.28;5131046;27;19919;-73
2023/04/20 07:47:02;;;;;;;;;;;;;;;19.75;38.37;101980.97;5131441;27;19978;-73
2023/04/20 07:49:27;;;;;;;;;;;;;;;19.75;38.09;101973.72;5115479;27;19919;-73
2023/04/20 07:51:52;;;;;;;;;;;;;;;19.76;38.13;101988.09;5136537;27;19923;-73
2023/04/20 07:54:17;;;;;;;;;;;;;;;19.76;37.98;101990.81;5131870;27;20366;-72
2023/04/20 07:56:43;;;;;;;;;;;;;;;19.75;37.89;101992.63;5133547;27;19915;-72
2023/04/20 07:59:08;;;;;;;;;;;;;;;19.75;38.24;101981.81;5116342;27;19932;-73
2023/04/20 08:01:34;;;;;;;;;;;;;;;19.74;38.20;101980.13;5132715;27;19958;-73
2023/04/20 08:04:00;;;;;;;;;;;;;;;19.74;37.98;101982.84;5127893;27;20017;-72
2023/04/20 08:06:26;;;;;;;;;;;;;;;19.75;37.99;101972.88;5131440;27;19923;-72
2023/04/20 08:08:51;;;;;;;;;;;;;;;19.74;38.01;101977.44;5132194;27;19922;-72
2023/04/20 08:11:16;;;;;;;;;;;;;;;19.75;37.95;101972.88;5114152;27;19973;-72
2023/04/20 08:13:41;;;;;;;;;;;;;;;19.74;37.74;101972.03;5131741;27;19920;-72
2023/04/20 08:16:06;;;;;;;;;;;;;;;19.75;38.01;101978.28;5131566;27;19912;-72
2023/04/20 08:18:32;;;;;;;;;;;;;;;19.73;37.69;101979.28;5136231;27;19927;-72
2023/04/20 08:20:57;;;;;;;;;;;;;;;19.72;38.06;101983.00;5131739;27;19911;-72
2023/04/20 08:23:26;;;;;;;;;;;;;;;19.72;37.68;101974.91;5132155;27;20056;-72
2023/04/20 08:25:52;;;;;;;;;;;;;;;19.73;37.78;101978.44;5131695;27;19937;-72
2023/04/20 08:28:17;;;;;;;;;;;;;;;19.73;37.93;101979.28;5132669;27;19923;-73
2023/04/20 08:30:42;;;;;;;;;;;;;;;19.73;37.56;101971.19;5131198;27;19916;-73
2023/04/20 08:33:07;;;;;;;;;;;;;;;19.73;37.88;101978.44;5116908;27;19919;-72
2023/04/20 08:35:32;;;;;;;;;;;;;;;19.74;37.71;101980.13;5129800;27;19916;-72
2023/04/20 08:37:58;;;;;;;;;;;;;;;19.75;37.77;101968.34;5114837;27;19919;-72
2023/04/20 08:40:23;;;;;;;;;;;;;;;19.77;37.73;101970.91;5133543;27;19916;-73
2023/04/20 08:42:49;;;;;;;;;;;;;;;19.79;37.66;101958.94;5129799;27;19916;-72
2023/04/20 08:45:14;;;;;;;;;;;;;;;19.80;37.66;101954.44;5138327;27;19964;-73
2023/04/20 08:47:39;;;;;;;;;;;;;;;19.82;37.58;101960.50;5114654;27;19916;-73
2023/04/20 08:50:05;;;;;;;;;;;;;;;19.82;37.89;101953.25;5137476;27;19922;-73
2023/04/20 08:52:31;;;;;;;;;;;;;;;19.84;37.89;101961.22;5136240;27;19922;-72
2023/04/20 08:54:56;;;;;;;;;;;;;;;19.84;37.63;101961.22;5116040;27;19926;-73
2023/04/20 08:57:21;;;;;;;;;;;;;;;19.84;37.71;101948.56;5128408;27;19931;-73
2023/04/20 08:59:46;;;;;;;;;;;;;;;19.86;37.67;101960.06;5129889;27;19920;-74
2023/04/20 09:02:12;;;;;;;;;;;;;;;19.87;37.65;101950.09;5131571;27;20490;-72
2023/04/20 09:04:38;;;;;;;;;;;;;;;19.89;37.92;101956.22;5130235;27;20368;-73
2023/04/20 09:07:03;;;;;;;;;;;;;;;19.90;37.73;101953.38;5131303;27;19916;-73
2023/04/20 09:09:28;;;;;;;;;;;;;;;19.92;37.74;101954.09;5131680;27;19912;-73
2023/04/20 09:12:03;;;;;;;;;;;;;;;19.92;37.93;101943.28;5130581;27;19951;-73
2023/04/20 09:14:28;;;;;;;;;;;;;;;19.95;37.96;101944.81;5132094;27;19930;-73
2023/04/20 09:17:00;;;;;;;;;;;;;;;19.95;37.99;101956.47;5111496;28;19911;-74
2023/04/20 09:19:26;;;;;;;;;;;;;;;19.96;37.98;101951.91;5119402;27;19982;-73
2023/04/20 09:21:52;;;;;;;;;;;;;;;19.97;38.15;101940.97;5121969;28;19922;-72
2023/04/20 09:24:18;;;;;;;;;;;;;;;19.98;37.97;101934.56;5135239;27;19915;-73
2023/04/20 09:26:43;;;;;;;;;;;;;;;19.99;38.21;101948.91;5130267;27;19919;-73
2023/04/20 09:29:19;;;;;;;;;;;;;;;19.99;38.30;101940.81;5128311;27;19920;-72
2023/04/20 09:31:44;;;;;;;;;;;;;;;20.00;38.28;101961.41;5132253;28;19971;-72
2023/04/20 09:34:10;;;;;;;;;;;;;;;20.01;38.51;101949.63;5131810;28;19915;-72
2023/04/20 09:36:36;;;;;;;;;;;;;;;20.01;38.35;101949.63;5128780;27;19934;-72
2023/04/20 09:39:06;;;;;;;;;;;;;;;20.03;38.25;101949.47;5133642;28;20414;-71
2023/04/20 09:41:32;;;;;;;;;;;;;;;20.03;38.51;101950.31;5130324;28;19919;-71
2023/04/20 09:43:57;;;;;;;;;;;;;;;20.04;38.30;101945.75;5122430;28;19922;-72
2023/04/20 09:46:22;;;;;;;;;;;;;;;20.03;38.67;101947.63;5100238;28;20325;-70
2023/04/20 09:48:48;;;;;;;;;;;;;;;20.03;38.72;101944.06;5111982;28;19923;-71
2023/04/20 09:51:13;;;;;;;;;;;;;;;20.04;38.77;101943.06;5113869;28;19923;-70
2023/04/20 09:53:38;;;;;;;;;;;;;;;20.04;38.96;101943.91;5133782;27;19987;-71
2023/04/20 09:56:04;;;;;;;;;;;;;;;20.05;38.84;101928.56;5117932;27;19923;-72
2023/04/20 09:58:30;;;;;;;;;;;;;;;20.06;38.71;101932.97;5115351;27;19943;-72
2023/04/20 10:00:55;;;;;;;;;;;;;;;20.07;39.02;101932.81;5118965;27;19915;-70
2023/04/20 10:03:20;;;;;;;;;;;;;;;20.08;38.87;101921.00;5134212;27;19994;-74
2023/04/20 10:05:45;;;;;;;;;;;;;;;20.08;38.86;101923.69;5134568;27;19912;-75
2023/04/20 10:08:11;;;;;;;;;;;;;;;20.08;38.86;101926.41;5114950;27;19922;-73
2023/04/20 10:10:43;;;;;;;;;;;;;;;20.09;39.03;101930.81;5116533;27;19926;-69
2023/04/20 10:13:08;;;;;;;;;;;;;;;20.10;39.12;101920.88;5136370;27;19989;-76
2023/04/20 10:15:37;;;;;;;;;;;;;;;20.10;39.03;101920.88;5138896;27;20397;-72
2023/04/20 10:18:14;;;;;;;;;;;;;;;20.10;39.04;101910.06;5134771;27;19927;-71
2023/04/20 10:20:39;;;;;;;;;;;;;;;20.10;38.99;101901.97;5135912;27;19996;-75
2023/04/20 10:23:13;;;;;;;;;;;;;;;20.10;38.68;101896.56;5133414;27;19919;-74
2023/04/20 10:25:38;;;;;;;;;;;;;;;20.12;38.92;101898.09;5137455;27;19919;-74
2023/04/20 10:28:05;;;;;;;;;;;;;;;20.13;38.55;101897.09;5127609;27;20098;-74
2023/04/20 10:30:30;;;;;;;;;;;;;;;20.13;38.63;101894.38;5131352;27;19926;-74
2023/04/20 10:33:02;;;;;;;;;;;;;;;20.14;38.53;101893.41;5118851;27;19959;-71
2023/04/20 10:35:27;;;;;;;;;;;;;;;20.13;38.63;101904.34;5134793;27;19915;-71
2023/04/20 10:37:52;;;;;;;;;;;;;;;20.14;38.32;101896.13;5116982;27;19923;-72
2023/04/20 10:40:25;;;;;;;;;;;;;;;20.13;38.29;101899.78;5140852;27;19920;-71
2023/04/20 10:42:50;;;;;;;;;;;;;;;20.13;38.42;101896.25;5117075;27;20276;-71
2023/04/20 10:45:15;;;;;;;;;;;;;;;20.13;38.45;101885.44;5129833;27;19923;-71
2023/04/20 10:47:40;;;;;;;;;;;;;;;20.14;38.37;101895.28;5128240;27;19941;-71
2023/04/20 10:50:07;;;;;;;;;;;;;;;20.12;38.33;101895.41;5130335;27;19951;-71
2023/04/20 10:52:36;;;;;;;;;;;;;;;20.12;38.19;101891.84;5127036;27;19995;-71
2023/04/20 10:55:02;;;;;;;;;;;;;;;20.13;38.13;101894.38;5134943;27;19920;-71
2023/04/20 10:57:27;;;;;;;;;;;;;;;20.14;38.32;101896.13;5114381;28;19976;-71
2023/04/20 10:59:52;;;;;;;;;;;;;;;20.14;38.08;101892.56;5135651;27;20429;-71
2023/04/20 11:02:18;;;;;;;;;;;;;;;20.13;38.07;101882.75;5118937;27;19923;-71
2023/04/20 11:04:43;;;;;;;;;;;;;;;20.13;38.19;101878.19;5130805;27;19915;-71
2023/04/20 11:07:09;;;;;;;;;;;;;;;20.13;38.13;101877.34;5135540;27;19939;-71
2023/04/20 11:09:34;;;;;;;;;;;;;;;20.13;37.92;101880.03;5116935;27;19923;-71
2023/04/20 11:12:10;;;;;;;;;;;;;;;20.13;37.94;101875.50;5114049;28;19916;-71
2023/04/20 11:14:37;;;;;;;;;;;;;;;20.14;38.22;101874.50;5136085;27;19924;-71
2023/04/20 11:17:02;;;;;;;;;;;;;;;20.15;37.89;101869.97;5112162;27;19926;-71
2023/04/20 11:19:28;;;;;;;;;;;;;;;20.16;37.80;101871.66;5112897;27;20502;-71
2023/04/20 11:21:54;;;;;;;;;;;;;;;20.17;37.99;101859.84;5132934;27;19924;-73
2023/04/20 11:24:23;;;;;;;;;;;;;;;20.18;38.11;101865.09;5113642;27;19957;-75
2023/04/20 11:26:49;;;;;;;;;;;;;;;20.20;38.18;101871.19;5132281;27;19911;-76
2023/04/20 11:29:26;;;;;;;;;;;;;;;20.20;38.19;101867.63;5123750;27;20029;-73
2023/04/20 11:31:52;;;;;;;;;;;;;;;20.21;38.17;101872.03;5131364;27;19916;-71
2023/04/20 11:34:17;;;;;;;;;;;;;;;20.21;38.16;101872.03;5134275;27;19919;-72
2023/04/20 11:36:42;;;;;;;;;;;;;;;20.20;38.01;101865.78;5134328;27;19961;-72
2023/04/20 11:39:12;;;;;;;;;;;;;;;20.20;38.20;101867.63;5131315;27;20016;-73
2023/04/20 11:41:37;;;;;;;;;;;;;;;20.20;38.26;101871.19;5135780;27;19922;-68
2023/04/20 11:44:04;;;;;;;;;;;;;;;20.20;37.97;101871.19;5128377;27;19916;-70
2023/04/20 11:46:33;;;;;;;;;;;;;;;20.20;38.22;101867.63;5113234;27;20329;-68
2023/04/20 11:48:59;;;;;;;;;;;;;;;20.20;38.32;101870.34;5132281;27;19916;-68
2023/04/20 11:51:25;;;;;;;;;;;;;;;20.20;38.13;101860.38;5134213;27;19915;-69
2023/04/20 11:53:50;;;;;;;;;;;;;;;20.21;38.05;101861.22;5130484;27;19927;-71
2023/04/20 11:56:16;;;;;;;;;;;;;;;20.19;37.97;101866.78;5133881;27;19911;-70
2023/04/20 11:58:41;;;;;;;;;;;;;;;20.20;38.28;101859.53;5135527;27;19988;-69
2023/04/20 12:01:06;;;;;;;;;;;;;;;20.19;38.04;101864.09;5130764;27;19912;-69
2023/04/20 12:03:32;;;;;;;;;;;;;;;20.20;38.05;101864.94;5132095;27;19924;-69
2023/04/20 12:05:57;;;;;;;;;;;;;;;20.19;38.16;101866.78;5132621;27;20007;-69
2023/04/20 12:08:23;;;;;;;;;;;;;;;20.19;38.19;101852.44;5118918;27;19972;-69
2023/04/20 12:10:48;;;;;;;;;;;;;;;20.20;38.36;101863.09;5135648;27;19912;-69
2023/04/20 12:13:14;;;;;;;;;;;;;;;20.20;38.20;101851.44;5132038;27;19989;-69
2023/04/20 12:15:39;;;;;;;;;;;;;;;20.20;38.37;101851.44;5134138;27;19919;-69
2023/04/20 12:18:05;;;;;;;;;;;;;;;20.21;38.28;101855.84;5127994;27;19930;-70
2023/04/20 12:20:30;;;;;;;;;;;;;;;20.20;38.24;101857.69;5132234;27;19987;-69
2023/04/20 12:22:57;;;;;;;;;;;;;;;20.20;38.07;101854.13;5130564;27;20220;-69
2023/04/20 12:25:22;;;;;;;;;;;;;;;20.20;38.17;101854.13;5131441;27;19920;-70
2023/04/20 12:27:47;;;;;;;;;;;;;;;20.20;38.54;101856.84;5129337;27;19943;-69